Time;durP1;ratioP1;P1;durP2;ratioP2;P2;SDS_P1;SDS_P2;PMS_P1;PMS_P2;Temp;Humidity;BMP_temperature;BMP_pressure;BME280_temperature;BME280_humidity;BME280_pressure;Samples;Min_cycle;Max_cycle;Signal;HPM_P1;HPM_P2
2021/04/02 00:01:14;;;;;;;49.20;26.13;;;14.00;99.90;;;;;;5070342;28;20411;-59
2021/04/02 00:03:40;;;;;;;50.93;26.83;;;14.00;99.90;;;;;;5069646;28;20384;-59
2021/04/02 00:06:10;;;;;;;43.60;26.48;;;13.90;99.90;;;;;;5070196;28;20376;-59
2021/04/02 00:08:37;;;;;;;46.50;25.42;;;13.80;99.90;;;;;;5056746;28;20935;-58
2021/04/02 00:11:05;;;;;;;49.40;26.83;;;13.80;99.90;;;;;;5090472;28;20477;-56
2021/04/02 00:13:39;;;;;;;50.50;26.00;;;13.60;99.90;;;;;;5087950;28;20388;-57
2021/04/02 00:16:08;;;;;;;49.33;26.50;;;13.50;99.90;;;;;;5089950;28;20455;-59
2021/04/02 00:18:34;;;;;;;47.65;26.35;;;13.30;99.90;;;;;;5088257;28;20463;-56
2021/04/02 00:21:01;;;;;;;49.92;27.90;;;13.10;99.90;;;;;;5090064;28;20405;-55
2021/04/02 00:23:27;;;;;;;48.53;27.90;;;12.90;99.90;;;;;;5087910;28;20871;-55
2021/04/02 00:25:54;;;;;;;48.60;27.33;;;12.80;99.90;;;;;;5090217;28;20381;-56
2021/04/02 00:28:20;;;;;;;50.85;29.08;;;12.80;99.90;;;;;;5088848;28;20802;-53
2021/04/02 00:30:48;;;;;;;48.88;27.05;;;12.90;99.90;;;;;;5088427;28;20405;-58
2021/04/02 00:33:15;;;;;;;50.97;27.30;;;12.70;99.90;;;;;;5089495;28;20538;-55
2021/04/02 00:35:41;;;;;;;50.43;26.83;;;12.80;99.90;;;;;;5088314;28;21113;-56
2021/04/02 00:38:08;;;;;;;46.10;26.35;;;12.80;99.90;;;;;;5089955;28;20461;-56
2021/04/02 00:40:38;;;;;;;47.13;25.15;;;12.80;99.90;;;;;;5086785;28;20408;-56
2021/04/02 00:43:04;;;;;;;46.70;26.67;;;12.70;99.90;;;;;;5089876;28;20401;-56
2021/04/02 00:45:30;;;;;;;51.13;27.23;;;12.70;99.90;;;;;;5089224;28;20378;-56
2021/04/02 00:47:56;;;;;;;52.00;26.35;;;12.60;99.90;;;;;;5088177;28;20382;-56
2021/04/02 00:50:27;;;;;;;49.15;27.33;;;12.60;99.90;;;;;;5089158;28;20386;-53
2021/04/02 00:52:53;;;;;;;47.97;28.27;;;12.50;99.90;;;;;;5071172;28;20398;-56
2021/04/02 00:55:19;;;;;;;47.67;26.43;;;12.50;99.90;;;;;;5088549;28;20751;-55
2021/04/02 00:57:45;;;;;;;50.60;27.55;;;12.50;99.90;;;;;;5088773;28;20863;-56
2021/04/02 01:00:11;;;;;;;43.30;24.87;;;12.40;99.90;;;;;;5087981;28;20451;-56
2021/04/02 01:02:38;;;;;;;48.63;25.90;;;12.40;99.90;;;;;;5088933;28;20386;-54
2021/04/02 01:05:13;;;;;;;48.65;26.10;;;12.40;99.90;;;;;;5088438;28;20386;-56
2021/04/02 01:07:39;;;;;;;48.25;25.00;;;12.40;99.90;;;;;;5089377;28;20392;-57
2021/04/02 01:10:11;;;;;;;44.58;25.13;;;12.40;99.90;;;;;;5088320;28;20864;-57
2021/04/02 01:12:36;;;;;;;49.58;26.13;;;12.30;99.90;;;;;;5088715;28;20831;-56
2021/04/02 01:15:16;;;;;;;51.15;26.30;;;12.20;99.90;;;;;;5088023;28;20397;-57
2021/04/02 01:17:46;;;;;;;44.55;25.60;;;12.00;99.90;;;;;;5068255;28;20491;-57
2021/04/02 01:20:12;;;;;;;49.40;26.80;;;11.90;99.90;;;;;;5077131;28;20883;-58
2021/04/02 01:22:39;;;;;;;50.22;25.55;;;11.80;99.90;;;;;;5088851;28;20388;-57
2021/04/02 01:25:18;;;;;;;47.05;25.13;;;11.80;99.90;;;;;;5088032;28;20436;-58
2021/04/02 01:28:11;;;;;;;43.75;25.30;;;11.70;99.90;;;;;;5088078;28;20386;-57
2021/04/02 01:30:39;;;;;;;54.58;25.23;;;11.60;99.90;;;;;;5088581;28;20393;-57
2021/04/02 01:33:06;;;;;;;47.45;24.75;;;11.50;99.90;;;;;;5089963;28;20377;-57
2021/04/02 01:35:38;;;;;;;47.20;24.60;;;11.50;99.90;;;;;;5087329;28;20409;-57
2021/04/02 01:38:16;;;;;;;44.05;24.23;;;11.50;99.90;;;;;;5089096;28;20421;-58
2021/04/02 01:40:45;;;;;;;44.70;23.75;;;11.50;99.90;;;;;;5088265;28;20406;-58
2021/04/02 01:43:15;;;;;;;45.42;25.40;;;11.50;99.90;;;;;;5089496;28;20382;-58
2021/04/02 01:45:43;;;;;;;44.47;24.48;;;11.30;99.90;;;;;;5087269;28;20411;-57
2021/04/02 01:48:10;;;;;;;42.85;23.35;;;11.20;99.90;;;;;;5089402;28;20400;-58
2021/04/02 01:50:43;;;;;;;45.08;23.35;;;11.10;99.90;;;;;;5087070;28;20401;-58
2021/04/02 01:53:10;;;;;;;40.90;22.60;;;11.10;99.90;;;;;;5092436;28;20373;-57
2021/04/02 01:55:38;;;;;;;41.30;21.33;;;11.10;99.90;;;;;;5092269;28;20519;-57
2021/04/02 01:58:06;;;;;;;34.90;19.85;;;11.30;99.90;;;;;;5091451;28;20402;-58
2021/04/02 02:00:38;;;;;;;46.53;22.65;;;11.40;99.90;;;;;;5092004;28;20778;-57
2021/04/02 02:03:07;;;;;;;35.38;19.98;;;11.50;99.90;;;;;;5092525;28;20852;-57
2021/04/02 02:05:33;;;;;;;38.33;19.77;;;11.50;99.90;;;;;;5091745;28;20382;-57
2021/04/02 02:08:03;;;;;;;40.50;20.55;;;11.40;99.90;;;;;;5092724;28;20394;-58
2021/04/02 02:10:30;;;;;;;39.95;20.98;;;11.40;99.90;;;;;;5091984;28;20393;-57
2021/04/02 02:12:58;;;;;;;38.95;22.35;;;11.40;99.90;;;;;;5092606;28;20460;-58
2021/04/02 02:15:25;;;;;;;38.42;19.60;;;11.30;99.90;;;;;;5091692;28;20374;-56
2021/04/02 02:18:04;;;;;;;30.10;17.50;;;11.20;99.90;;;;;;5092469;28;20374;-58
2021/04/02 02:20:31;;;;;;;29.67;16.52;;;11.20;99.90;;;;;;5091560;28;20459;-57
2021/04/02 02:22:58;;;;;;;25.80;16.20;;;11.20;99.90;;;;;;5092648;28;20382;-59
2021/04/02 02:25:28;;;;;;;26.83;16.00;;;11.30;99.90;;;;;;5091908;28;20481;-55
2021/04/02 02:27:55;;;;;;;30.67;16.25;;;11.40;99.90;;;;;;5092274;28;20389;-58
2021/04/02 02:30:24;;;;;;;29.90;16.73;;;11.30;99.90;;;;;;5074215;28;20394;-57
2021/04/02 02:32:51;;;;;;;31.25;16.38;;;11.30;99.90;;;;;;5091751;28;20378;-58
2021/04/02 02:35:17;;;;;;;30.30;16.00;;;11.30;99.90;;;;;;5092118;28;20447;-58
2021/04/02 02:37:44;;;;;;;32.47;16.67;;;11.20;99.90;;;;;;5091385;28;21027;-57
2021/04/02 02:40:13;;;;;;;30.27;16.13;;;11.20;99.90;;;;;;5091949;28;20379;-58
2021/04/02 02:42:38;;;;;;;29.40;13.85;;;11.00;99.90;;;;;;5091249;28;20386;-58
2021/04/02 02:45:06;;;;;;;24.00;12.50;;;10.90;99.90;;;;;;5091765;28;20439;-57
2021/04/02 02:47:32;;;;;;;19.27;11.40;;;11.00;99.90;;;;;;5091102;28;20427;-58
2021/04/02 02:49:59;;;;;;;22.75;11.07;;;11.00;99.90;;;;;;5091979;28;20405;-59
2021/04/02 02:52:25;;;;;;;25.17;12.63;;;11.10;99.90;;;;;;5091361;28;20378;-55
2021/04/02 02:54:53;;;;;;;22.48;13.10;;;11.10;99.90;;;;;;5091866;28;20840;-58
2021/04/02 02:57:21;;;;;;;25.67;15.15;;;11.10;99.90;;;;;;5091826;28;20479;-58
2021/04/02 02:59:49;;;;;;;26.05;14.10;;;11.00;99.90;;;;;;5090740;28;21168;-58
2021/04/02 03:02:17;;;;;;;23.48;12.75;;;10.90;99.90;;;;;;5091553;28;20855;-58
2021/04/02 03:04:44;;;;;;;24.70;12.57;;;10.70;99.90;;;;;;5090273;28;20451;-58
2021/04/02 03:07:11;;;;;;;22.27;11.85;;;10.60;99.90;;;;;;5091312;28;20374;-58
2021/04/02 03:09:40;;;;;;;20.98;10.20;;;10.60;99.90;;;;;;5090886;28;20378;-58
2021/04/02 03:12:08;;;;;;;19.08;8.70;;;10.40;99.90;;;;;;5091372;28;20392;-60
2021/04/02 03:14:35;;;;;;;17.50;7.87;;;10.30;99.90;;;;;;5090610;28;20470;-58
2021/04/02 03:17:04;;;;;;;15.48;6.70;;;10.10;99.90;;;;;;5091096;28;20487;-58
2021/04/02 03:19:31;;;;;;;14.45;6.85;;;10.10;99.90;;;;;;5090560;28;20469;-58
2021/04/02 03:22:00;;;;;;;13.00;7.00;;;10.10;99.90;;;;;;5090788;28;20409;-58
2021/04/02 03:24:26;;;;;;;15.00;7.60;;;10.10;99.90;;;;;;5091052;28;20470;-55
2021/04/02 03:26:54;;;;;;;16.08;6.80;;;10.10;99.90;;;;;;5091376;28;20401;-58
2021/04/02 03:29:22;;;;;;;14.90;6.40;;;10.00;99.90;;;;;;5091043;28;20408;-58
2021/04/02 03:31:50;;;;;;;11.30;5.63;;;9.80;99.90;;;;;;5090315;28;20390;-58
2021/04/02 03:34:20;;;;;;;12.20;5.60;;;9.70;99.90;;;;;;5073047;28;20382;-57
2021/04/02 03:36:48;;;;;;;12.00;5.45;;;9.60;99.90;;;;;;5072092;28;20397;-58
2021/04/02 03:39:20;;;;;;;11.80;5.10;;;9.50;99.90;;;;;;5091030;28;20381;-59
2021/04/02 03:41:51;;;;;;;12.63;4.88;;;9.50;99.90;;;;;;5090080;28;20426;-58
2021/04/02 03:44:20;;;;;;;7.60;4.37;;;9.40;99.90;;;;;;5091419;28;20386;-58
2021/04/02 03:46:47;;;;;;;7.38;3.50;;;9.20;99.90;;;;;;5089992;28;20378;-58
2021/04/02 03:49:18;;;;;;;10.32;4.10;;;9.20;99.90;;;;;;5090708;28;20381;-57
2021/04/02 03:51:47;;;;;;;10.00;3.65;;;9.20;99.90;;;;;;5072203;28;20422;-59
2021/04/02 03:54:13;;;;;;;8.00;3.35;;;9.20;99.90;;;;;;5090446;28;20435;-58
2021/04/02 03:56:43;;;;;;;8.02;3.35;;;9.10;99.90;;;;;;5089741;28;20394;-58
2021/04/02 03:59:10;;;;;;;9.52;3.78;;;9.10;99.90;;;;;;5089838;28;20394;-58
2021/04/02 04:01:39;;;;;;;8.43;3.40;;;9.00;99.90;;;;;;5088987;28;20406;-57
2021/04/02 04:04:08;;;;;;;11.47;3.80;;;9.00;99.90;;;;;;5090542;28;20405;-57
2021/04/02 04:06:35;;;;;;;6.93;3.15;;;9.00;99.90;;;;;;5088983;28;20390;-57
2021/04/02 04:09:13;;;;;;;9.70;3.55;;;8.90;99.90;;;;;;5090407;28;20455;-57
2021/04/02 04:11:41;;;;;;;10.75;3.40;;;8.90;99.90;;;;;;5088420;28;20587;-57
2021/04/02 04:14:07;;;;;;;6.43;2.90;;;8.90;99.90;;;;;;5089995;28;20378;-57
2021/04/02 04:16:37;;;;;;;7.32;2.83;;;8.80;99.90;;;;;;5088441;28;20428;-56
2021/04/02 04:19:05;;;;;;;6.50;2.30;;;8.70;99.90;;;;;;5089482;28;20390;-57
2021/04/02 04:21:35;;;;;;;6.47;2.80;;;8.70;99.90;;;;;;5089303;28;20432;-57
2021/04/02 04:24:03;;;;;;;9.18;2.80;;;8.70;99.90;;;;;;5088250;28;20441;-57
2021/04/02 04:26:30;;;;;;;9.05;2.80;;;8.50;99.90;;;;;;5089129;28;20393;-56
2021/04/02 04:28:58;;;;;;;7.10;2.58;;;8.60;99.90;;;;;;5088666;28;20402;-57
2021/04/02 04:31:26;;;;;;;8.68;2.72;;;8.60;99.90;;;;;;5089949;28;20386;-57
2021/04/02 04:33:53;;;;;;;6.10;2.20;;;8.60;99.90;;;;;;5089574;28;20393;-56
2021/04/02 04:36:20;;;;;;;6.00;2.57;;;8.50;99.90;;;;;;5088761;28;20506;-57
2021/04/02 04:38:48;;;;;;;7.30;2.22;;;8.50;99.90;;;;;;5089224;28;20378;-57
2021/04/02 04:41:15;;;;;;;6.10;2.30;;;8.30;99.90;;;;;;5089052;28;20410;-57
2021/04/02 04:43:43;;;;;;;9.35;2.40;;;8.20;99.90;;;;;;5087390;28;20394;-57
2021/04/02 04:46:09;;;;;;;8.32;3.30;;;8.00;99.90;;;;;;5089932;28;20389;-57
2021/04/02 04:48:34;;;;;;;6.87;2.93;;;7.90;99.90;;;;;;5087721;28;20397;-57
2021/04/02 04:51:00;;;;;;;7.63;2.20;;;7.90;99.90;;;;;;5089982;28;20762;-57
2021/04/02 04:53:29;;;;;;;7.60;2.60;;;7.80;99.90;;;;;;5089513;28;20369;-54
2021/04/02 04:55:59;;;;;;;7.28;2.90;;;7.80;99.90;;;;;;5089967;28;20394;-58
2021/04/02 04:58:29;;;;;;;6.57;3.20;;;7.80;99.90;;;;;;5075963;28;20499;-57
2021/04/02 05:00:56;;;;;;;7.17;3.10;;;6.30;99.90;;;;;;5069600;28;20399;-57
2021/04/02 05:03:24;;;;;;;9.90;3.90;;;7.50;99.90;;;;;;5069649;28;20398;-57
2021/04/02 05:05:56;;;;;;;10.18;3.30;;;7.50;99.90;;;;;;5068932;28;20405;-56
2021/04/02 05:08:38;;;;;;;7.65;3.50;;;7.60;99.90;;;;;;5069817;28;20364;-57
2021/04/02 05:11:07;;;;;;;8.15;3.50;;;7.30;99.90;;;;;;5069369;28;20496;-57
2021/04/02 05:13:34;;;;;;;6.00;2.95;;;7.60;99.90;;;;;;5068628;28;20390;-57
2021/04/02 05:16:02;;;;;;;9.70;3.67;;;7.70;99.90;;;;;;5069142;28;20399;-57
2021/04/02 05:18:29;;;;;;;8.70;3.40;;;7.70;99.90;;;;;;5069261;28;20384;-54
2021/04/02 05:20:55;;;;;;;9.40;3.22;;;7.80;99.90;;;;;;5069351;28;20484;-57
2021/04/02 05:23:20;;;;;;;8.10;3.30;;;7.90;99.90;;;;;;5069673;28;20387;-57
2021/04/02 05:25:46;;;;;;;9.38;3.42;;;8.00;99.90;;;;;;5068613;28;20626;-57
2021/04/02 05:28:12;;;;;;;9.03;3.53;;;8.20;99.90;;;;;;5073112;28;20387;-57
2021/04/02 05:30:38;;;;;;;9.57;3.60;;;8.30;99.90;;;;;;5072566;28;20415;-57
2021/04/02 05:33:05;;;;;;;8.25;3.60;;;8.40;99.90;;;;;;5072817;28;20465;-57
2021/04/02 05:35:31;;;;;;;9.45;3.50;;;8.30;99.90;;;;;;5072149;28;20379;-54
2021/04/02 05:37:57;;;;;;;10.05;3.85;;;8.30;99.90;;;;;;5072993;28;20421;-53
2021/04/02 05:40:23;;;;;;;7.27;3.30;;;8.10;99.90;;;;;;5085770;28;20386;-54
2021/04/02 05:43:15;;;;;;;6.67;3.10;;;8.10;99.90;;;;;;5093462;28;20374;-52
2021/04/02 05:45:41;;;;;;;7.65;3.20;;;8.10;99.90;;;;;;5091857;28;20448;-52
2021/04/02 05:48:08;;;;;;;8.83;3.70;;;8.10;99.90;;;;;;5088830;28;20411;-53
2021/04/02 05:50:36;;;;;;;7.43;3.40;;;8.10;99.90;;;;;;5072036;28;20883;-57
2021/04/02 05:53:07;;;;;;;10.05;3.75;;;8.40;99.90;;;;;;5071862;28;20853;-52
2021/04/02 05:55:38;;;;;;;11.40;3.90;;;8.30;99.90;;;;;;5075277;28;21169;-55
2021/04/02 05:58:06;;;;;;;10.48;3.35;;;8.40;99.90;;;;;;5077435;28;21026;-60
2021/04/02 06:00:35;;;;;;;8.45;3.80;;;8.50;99.90;;;;;;5088895;28;20385;-55
2021/04/02 06:03:02;;;;;;;10.98;3.88;;;8.40;99.90;;;;;;5071991;28;20372;-58
2021/04/02 06:05:28;;;;;;;11.20;5.00;;;8.90;99.90;;;;;;5078930;28;20516;-57
2021/04/02 06:07:56;;;;;;;8.63;3.10;;;9.70;99.90;;;;;;5092397;28;20466;-55
2021/04/02 06:10:22;;;;;;;7.00;3.40;;;10.10;99.90;;;;;;5091573;28;20378;-53
2021/04/02 06:12:48;;;;;;;9.18;4.13;;;11.30;99.90;;;;;;5090923;28;20377;-53
2021/04/02 06:15:15;;;;;;;8.18;3.80;;;12.70;99.20;;;;;;5092324;28;20569;-53
2021/04/02 06:18:12;;;;;;;7.43;4.00;;;13.60;95.20;;;;;;5090132;28;20398;-54
2021/04/02 06:20:43;;;;;;;7.80;3.75;;;14.50;92.30;;;;;;5091212;28;20413;-54
2021/04/02 06:23:22;;;;;;;11.27;4.20;;;15.90;85.30;;;;;;5091658;28;20804;-54
2021/04/02 06:26:12;;;;;;;7.97;3.50;;;16.40;78.20;;;;;;5090825;28;20402;-54
2021/04/02 06:28:39;;;;;;;10.20;4.03;;;16.20;75.90;;;;;;5091274;28;20571;-56
2021/04/02 06:31:15;;;;;;;8.27;3.80;;;16.10;74.80;;;;;;5069847;28;20409;-54
2021/04/02 06:33:46;;;;;;;11.67;4.10;;;16.10;75.00;;;;;;5090477;28;20382;-58
2021/04/02 06:36:17;;;;;;;8.00;3.90;;;16.10;74.10;;;;;;5091679;28;20375;-59
2021/04/02 06:38:48;;;;;;;8.32;4.45;;;15.90;74.90;;;;;;5089343;28;20383;-57
2021/04/02 06:41:14;;;;;;;9.15;4.38;;;16.00;73.70;;;;;;5073686;28;20413;-53
2021/04/02 06:43:45;;;;;;;10.70;5.00;;;16.20;74.20;;;;;;5082534;28;20892;-57
2021/04/02 06:46:24;;;;;;;9.48;4.88;;;16.60;72.60;;;;;;5071112;28;20415;-57
2021/04/02 06:48:51;;;;;;;9.20;5.10;;;16.70;70.80;;;;;;5085413;28;20490;-57
2021/04/02 06:51:19;;;;;;;9.88;5.13;;;16.80;70.30;;;;;;5091317;28;20378;-58
2021/04/02 06:53:47;;;;;;;8.82;4.97;;;16.20;71.50;;;;;;5090408;28;20370;-56
2021/04/02 06:56:14;;;;;;;10.85;4.85;;;16.30;70.20;;;;;;5091747;28;20389;-59
2021/04/02 06:58:41;;;;;;;9.48;4.93;;;16.50;69.90;;;;;;5072772;28;20397;-59
2021/04/02 07:01:07;;;;;;;10.30;5.00;;;15.90;71.70;;;;;;5091025;28;20397;-57
2021/04/02 07:03:35;;;;;;;10.40;5.20;;;16.20;71.60;;;;;;5090087;28;20386;-54
2021/04/02 07:06:03;;;;;;;9.93;5.50;;;16.10;70.50;;;;;;5078675;28;20903;-56
2021/04/02 07:08:31;;;;;;;11.52;5.35;;;16.10;71.40;;;;;;5090854;28;20385;-56
2021/04/02 07:10:57;;;;;;;9.93;4.72;;;13.80;67.90;;;;;;5090886;28;20385;-56
2021/04/02 07:13:34;;;;;;;10.70;5.20;;;16.00;71.50;;;;;;5090940;28;20378;-57
2021/04/02 07:16:01;;;;;;;9.75;4.88;;;16.40;69.70;;;;;;5090907;28;20398;-57
2021/04/02 07:18:28;;;;;;;10.77;5.40;;;15.60;71.20;;;;;;5090959;28;20439;-56
2021/04/02 07:20:54;;;;;;;10.18;5.88;;;15.40;74.10;;;;;;5090438;28;20585;-57
2021/04/02 07:23:20;;;;;;;9.67;5.80;;;15.90;72.50;;;;;;5089780;28;20868;-57
2021/04/02 07:25:46;;;;;;;11.82;5.80;;;16.70;69.80;;;;;;5090036;28;20863;-56
2021/04/02 07:28:12;;;;;;;11.27;5.45;;;16.60;68.60;;;;;;5091242;28;20375;-57
2021/04/02 07:30:39;;;;;;;10.65;5.20;;;17.20;67.80;;;;;;5089881;28;20878;-57
2021/04/02 07:33:10;;;;;;;9.10;5.10;;;18.00;66.20;;;;;;5090580;28;20378;-55
2021/04/02 07:35:37;;;;;;;10.07;5.85;;;18.80;63.80;;;;;;5089751;28;20736;-56
2021/04/02 07:38:07;;;;;;;9.95;5.38;;;19.20;60.20;;;;;;5090417;28;20404;-57
2021/04/02 07:40:34;;;;;;;10.23;5.93;;;18.90;60.80;;;;;;5088719;28;20382;-55
2021/04/02 07:43:05;;;;;;;9.90;5.95;;;19.00;59.70;;;;;;5091063;28;20848;-58
2021/04/02 07:45:33;;;;;;;13.38;5.85;;;18.90;59.60;;;;;;5089359;28;20736;-57
2021/04/02 07:48:14;;;;;;;10.30;6.00;;;18.40;60.60;;;;;;5090170;28;20363;-57
2021/04/02 07:50:48;;;;;;;9.50;5.87;;;19.40;59.80;;;;;;5089488;28;20504;-58
2021/04/02 07:53:18;;;;;;;12.15;6.50;;;19.90;57.60;;;;;;5090166;28;20477;-57
2021/04/02 07:55:54;;;;;;;11.30;6.80;;;18.90;58.70;;;;;;5089848;28;20404;-57
2021/04/02 07:58:23;;;;;;;10.95;6.75;;;19.30;58.90;;;;;;5090618;28;20480;-57
2021/04/02 08:00:53;;;;;;;13.65;6.82;;;19.50;58.00;;;;;;5089237;28;20410;-57
2021/04/02 08:03:19;;;;;;;10.93;6.23;;;19.10;57.90;;;;;;5090345;28;21058;-57
2021/04/02 08:06:27;;;;;;;12.15;7.85;;;18.20;60.10;;;;;;5078054;28;20388;-57
2021/04/02 08:08:52;;;;;;;10.48;6.18;;;19.30;59.40;;;;;;5068951;28;20380;-57
2021/04/02 08:11:45;;;;;;;10.65;6.47;;;20.10;57.20;;;;;;5070159;28;20394;-57
2021/04/02 08:14:13;;;;;;;11.68;7.10;;;19.90;57.20;;;;;;5069972;28;20372;-57
2021/04/02 08:16:43;;;;;;;12.40;7.20;;;20.40;56.70;;;;;;5068870;28;20450;-57
2021/04/02 08:19:39;;;;;;;11.87;7.50;;;20.30;56.20;;;;;;5069923;28;20376;-57
2021/04/02 08:22:13;;;;;;;11.37;7.10;;;19.70;56.80;;;;;;5069793;28;20443;-57
2021/04/02 08:24:41;;;;;;;11.25;7.50;;;19.20;58.20;;;;;;5068714;28;20392;-57
2021/04/02 08:27:08;;;;;;;11.00;7.40;;;19.70;58.30;;;;;;5069946;28;20439;-57
2021/04/02 08:29:35;;;;;;;11.30;7.65;;;21.30;55.50;;;;;;5069451;28;20392;-56
2021/04/02 08:32:06;;;;;;;11.55;7.40;;;21.30;54.10;;;;;;5069527;28;20384;-58
2021/04/02 08:34:33;;;;;;;12.75;7.78;;;21.50;54.30;;;;;;5069935;28;20380;-56
2021/04/02 08:37:01;;;;;;;15.07;7.53;;;21.30;54.60;;;;;;5069300;28;20881;-57
2021/04/02 08:39:27;;;;;;;12.77;7.90;;;21.40;54.00;;;;;;5069408;28;20383;-57
2021/04/02 08:42:07;;;;;;;13.98;8.95;;;20.70;54.00;;;;;;5068447;28;20911;-57
2021/04/02 08:44:39;;;;;;;11.37;7.53;;;19.60;55.90;;;;;;5051229;28;20393;-55
2021/04/02 08:47:07;;;;;;;12.55;8.10;;;20.20;55.30;;;;;;5069707;28;20380;-57
2021/04/02 08:49:48;;;;;;;12.68;7.80;;;21.00;54.20;;;;;;5069000;28;20444;-56
2021/04/02 08:52:16;;;;;;;13.07;8.00;;;20.80;54.40;;;;;;5079306;28;20459;-57
2021/04/02 08:54:44;;;;;;;12.80;7.90;;;20.30;54.80;;;;;;5088817;28;20378;-57
2021/04/02 08:57:11;;;;;;;12.45;7.82;;;21.50;53.70;;;;;;5087738;28;20417;-57
2021/04/02 08:59:39;;;;;;;12.10;8.10;;;22.10;52.00;;;;;;5070770;28;20804;-56
2021/04/02 09:02:05;;;;;;;12.93;8.52;;;22.00;52.30;;;;;;5089348;28;20840;-57
2021/04/02 09:04:33;;;;;;;13.88;8.93;;;21.50;51.90;;;;;;5092201;28;20370;-56
2021/04/02 09:06:59;;;;;;;13.82;8.52;;;21.40;52.40;;;;;;5082287;28;20401;-57
2021/04/02 09:09:28;;;;;;;13.80;8.00;;;22.10;51.60;;;;;;5093590;28;20382;-57
2021/04/02 09:11:55;;;;;;;13.10;8.53;;;22.00;51.80;;;;;;5090942;28;21045;-57
2021/04/02 09:14:22;;;;;;;14.20;9.00;;;22.00;51.40;;;;;;5092959;28;20721;-57
2021/04/02 09:16:54;;;;;;;12.93;8.02;;;20.60;52.50;;;;;;5092329;28;20409;-58
2021/04/02 09:19:21;;;;;;;12.93;8.50;;;19.90;53.60;;;;;;5091908;28;20421;-57
2021/04/02 09:21:47;;;;;;;12.77;8.88;;;19.40;54.70;;;;;;5092375;28;20397;-57
2021/04/02 09:24:12;;;;;;;13.32;9.00;;;19.90;55.00;;;;;;5093478;28;20386;-57
2021/04/02 09:26:41;;;;;;;13.02;8.50;;;20.80;54.20;;;;;;5092266;28;20405;-56
2021/04/02 09:29:14;;;;;;;11.68;8.20;;;21.10;52.70;;;;;;5093159;28;20382;-57
2021/04/02 09:31:42;;;;;;;13.70;8.85;;;21.90;52.10;;;;;;5092185;28;20954;-57
2021/04/02 09:34:19;;;;;;;14.25;9.15;;;23.00;50.90;;;;;;5093026;28;20531;-57
2021/04/02 09:36:49;;;;;;;14.45;9.35;;;24.00;49.70;;;;;;5092537;28;20382;-58
2021/04/02 09:39:16;;;;;;;13.30;8.20;;;25.40;47.10;;;;;;5092974;28;20370;-57
2021/04/02 09:41:56;;;;;;;13.57;8.98;;;23.70;46.70;;;;;;5092277;28;20406;-57
2021/04/02 09:44:36;;;;;;;13.57;9.20;;;21.00;49.70;;;;;;5092824;28;20393;-57
2021/04/02 09:47:06;;;;;;;13.00;9.20;;;20.40;51.20;;;;;;5092491;28;20378;-57
2021/04/02 09:49:34;;;;;;;13.15;8.60;;;19.50;52.70;;;;;;5092704;28;20375;-56
2021/04/02 09:52:01;;;;;;;12.80;8.70;;;18.40;54.00;;;;;;5092414;28;20400;-57
2021/04/02 09:54:29;;;;;;;13.93;9.02;;;17.00;56.00;;;;;;5092754;28;20370;-57
2021/04/02 09:56:56;;;;;;;14.15;8.85;;;16.70;57.60;;;;;;5092005;28;20817;-57
2021/04/02 09:59:22;;;;;;;11.52;8.10;;;17.80;57.10;;;;;;5092679;28;20385;-56
2021/04/02 10:01:48;;;;;;;12.80;8.13;;;17.90;55.60;;;;;;5091770;28;20409;-56
2021/04/02 10:04:15;;;;;;;13.95;8.90;;;18.00;55.70;;;;;;5091843;28;20385;-56
2021/04/02 10:06:42;;;;;;;12.60;8.50;;;17.30;56.90;;;;;;5072745;28;20402;-56
2021/04/02 10:09:08;;;;;;;13.27;8.60;;;17.30;57.90;;;;;;5072731;28;20908;-56
2021/04/02 10:11:36;;;;;;;14.82;8.48;;;18.10;56.60;;;;;;5072487;28;20650;-55
2021/04/02 10:14:02;;;;;;;11.52;7.30;;;18.50;55.30;;;;;;5071976;28;20410;-55
2021/04/02 10:16:28;;;;;;;12.50;7.50;;;17.50;56.30;;;;;;5071915;28;20404;-56
2021/04/02 10:18:54;;;;;;;14.07;7.60;;;16.90;56.70;;;;;;5071386;28;20678;-57
2021/04/02 10:21:22;;;;;;;12.73;7.38;;;16.70;56.70;;;;;;5072115;28;20396;-56
2021/04/02 10:23:48;;;;;;;11.57;6.90;;;16.40;57.40;;;;;;5071746;28;20390;-57
2021/04/02 10:26:15;;;;;;;11.82;7.43;;;17.30;55.80;;;;;;5071983;28;21322;-57
2021/04/02 10:28:41;;;;;;;13.40;8.00;;;18.60;54.70;;;;;;5071066;28;20758;-57
2021/04/02 10:31:08;;;;;;;10.70;7.00;;;19.80;53.10;;;;;;5072153;28;20395;-57
2021/04/02 10:33:33;;;;;;;11.40;7.40;;;20.20;52.10;;;;;;5071854;28;20376;-56
2021/04/02 10:35:59;;;;;;;12.05;7.82;;;20.80;52.00;;;;;;5070978;28;20386;-57
2021/04/02 10:38:25;;;;;;;10.87;6.87;;;20.70;51.00;;;;;;5071876;28;20376;-57
2021/04/02 10:40:51;;;;;;;11.00;7.38;;;20.30;51.60;;;;;;5070781;28;20411;-57
2021/04/02 10:43:17;;;;;;;10.77;7.20;;;20.20;51.90;;;;;;5071769;28;20380;-57
2021/04/02 10:45:43;;;;;;;12.02;7.57;;;19.90;52.00;;;;;;5070962;28;20438;-57
2021/04/02 10:48:09;;;;;;;13.30;7.30;;;19.60;52.10;;;;;;5071490;28;20372;-57
2021/04/02 10:50:38;;;;;;;11.35;7.10;;;19.80;52.60;;;;;;5071170;28;20441;-55
2021/04/02 10:53:04;;;;;;;11.37;6.90;;;20.20;51.70;;;;;;5071609;28;20387;-57
2021/04/02 10:55:29;;;;;;;9.60;6.35;;;20.00;50.20;;;;;;5071495;28;20392;-57
2021/04/02 10:57:55;;;;;;;11.70;6.70;;;20.70;50.00;;;;;;5070417;28;20384;-56
2021/04/02 11:00:22;;;;;;;12.00;7.23;;;20.10;49.60;;;;;;5071188;28;20384;-57
2021/04/02 11:02:48;;;;;;;9.83;6.20;;;20.10;49.80;;;;;;5070148;28;20427;-57
2021/04/02 11:05:15;;;;;;;9.68;6.10;;;19.80;50.70;;;;;;5078272;28;20378;-56
2021/04/02 11:07:41;;;;;;;11.10;6.47;;;19.30;50.80;;;;;;5090931;28;20374;-57
2021/04/02 11:10:09;;;;;;;11.25;6.15;;;18.90;51.80;;;;;;5090999;28;20942;-59
2021/04/02 11:12:36;;;;;;;11.07;6.05;;;19.70;51.90;;;;;;5091226;28;20378;-56
2021/04/02 11:15:03;;;;;;;11.57;5.50;;;20.30;50.40;;;;;;5091055;28;20376;-57
2021/04/02 11:17:29;;;;;;;9.65;6.10;;;21.10;49.20;;;;;;5090442;28;20463;-57
2021/04/02 11:19:56;;;;;;;9.80;5.90;;;21.10;48.10;;;;;;5088752;28;21283;-56
2021/04/02 11:22:22;;;;;;;9.82;5.65;;;20.20;48.30;;;;;;5091055;28;20425;-57
2021/04/02 11:24:48;;;;;;;10.85;5.47;;;19.80;49.20;;;;;;5088171;28;20467;-57
2021/04/02 11:27:14;;;;;;;9.88;5.82;;;18.80;48.20;;;;;;5090633;28;20470;-59
2021/04/02 11:29:40;;;;;;;10.83;6.27;;;18.10;51.00;;;;;;5089401;28;20493;-57
2021/04/02 11:32:08;;;;;;;11.57;6.45;;;18.00;50.80;;;;;;5090042;28;20816;-58
2021/04/02 11:34:35;;;;;;;10.10;5.97;;;17.80;51.90;;;;;;5090570;28;20375;-56
2021/04/02 11:37:01;;;;;;;10.03;6.20;;;18.40;51.60;;;;;;5089315;28;20405;-57
2021/04/02 11:39:27;;;;;;;10.73;6.20;;;17.90;51.80;;;;;;5089240;28;20792;-56
2021/04/02 11:41:53;;;;;;;10.18;6.03;;;17.60;51.70;;;;;;5089200;28;20448;-57
2021/04/02 11:44:20;;;;;;;10.07;6.03;;;17.30;52.00;;;;;;5089379;28;20397;-57
2021/04/02 11:46:47;;;;;;;8.60;5.10;;;16.80;52.50;;;;;;5089458;28;20374;-56
2021/04/02 11:49:13;;;;;;;11.35;5.97;;;16.70;51.80;;;;;;5090625;28;20390;-57
2021/04/02 11:51:39;;;;;;;9.17;5.57;;;16.80;52.00;;;;;;5089803;28;20393;-55
2021/04/02 11:54:05;;;;;;;9.57;5.70;;;17.00;51.50;;;;;;5090738;28;20435;-58
2021/04/02 11:56:30;;;;;;;10.05;5.53;;;17.10;52.00;;;;;;5090121;28;20867;-57
2021/04/02 11:58:56;;;;;;;10.15;5.78;;;17.10;52.60;;;;;;5089938;28;20401;-57
2021/04/02 12:01:22;;;;;;;9.50;5.70;;;17.20;52.40;;;;;;5090467;28;20406;-56
2021/04/02 12:03:48;;;;;;;11.90;5.53;;;17.10;52.40;;;;;;5089514;28;20390;-56
2021/04/02 12:06:13;;;;;;;10.85;5.65;;;16.80;51.50;;;;;;5056819;28;20379;-57
2021/04/02 12:08:40;;;;;;;8.38;5.28;;;16.80;52.10;;;;;;5069420;28;20385;-55
2021/04/02 12:11:05;;;;;;;9.18;5.10;;;16.80;52.00;;;;;;5069580;28;20403;-56
2021/04/02 12:13:31;;;;;;;9.20;5.77;;;17.20;51.30;;;;;;5070087;28;20678;-57
2021/04/02 12:15:57;;;;;;;7.78;5.00;;;17.10;51.40;;;;;;5069061;28;20523;-56
2021/04/02 12:18:23;;;;;;;9.70;5.30;;;16.60;51.70;;;;;;5069946;28;20380;-56
2021/04/02 12:20:49;;;;;;;8.50;4.88;;;16.80;51.60;;;;;;5069108;28;20380;-57
2021/04/02 12:23:15;;;;;;;10.80;5.60;;;17.30;51.10;;;;;;5069955;28;20406;-59
2021/04/02 12:25:41;;;;;;;8.95;4.90;;;17.40;50.50;;;;;;5069358;28;20380;-56
2021/04/02 12:28:07;;;;;;;10.05;4.93;;;17.10;51.00;;;;;;5069728;28;20383;-57
2021/04/02 12:30:33;;;;;;;8.17;5.10;;;17.10;50.80;;;;;;5069897;28;20925;-57
2021/04/02 12:32:59;;;;;;;8.13;5.20;;;17.50;50.60;;;;;;5051090;28;20379;-58
2021/04/02 12:35:25;;;;;;;10.07;5.47;;;17.70;50.30;;;;;;5069681;28;20518;-57
2021/04/02 12:37:51;;;;;;;8.73;5.03;;;16.90;50.70;;;;;;5068980;28;20387;-57
2021/04/02 12:40:19;;;;;;;10.70;5.00;;;16.70;51.10;;;;;;5069896;28;20372;-57
2021/04/02 12:42:45;;;;;;;11.45;5.40;;;16.80;50.90;;;;;;5068914;28;20457;-56
2021/04/02 12:45:12;;;;;;;9.07;5.07;;;16.80;50.40;;;;;;5069554;28;20384;-57
2021/04/02 12:47:39;;;;;;;8.97;5.30;;;16.60;50.20;;;;;;5068854;28;20376;-56